createdAt,value
2022-12-13T00:00:13.171Z,18.00
2022-12-13T00:05:13.584Z,18.20
2022-12-13T00:10:13.149Z,18.20
2022-12-13T00:15:13.578Z,18.20
2022-12-13T00:20:13.170Z,20.70
2022-12-13T00:25:13.701Z,20.70
2022-12-13T00:35:13.561Z,15.50
2022-12-13T00:45:13.524Z,15.50
2022-12-13T00:50:13.195Z,14.80
2022-12-13T00:55:13.485Z,14.80
2022-12-13T01:00:13.177Z,14.80
2022-12-13T01:05:13.528Z,16.20
2022-12-13T01:10:13.156Z,16.20
2022-12-13T01:15:13.516Z,16.20
2022-12-13T01:20:13.188Z,14.60
2022-12-13T01:35:13.558Z,15.70
2022-12-13T01:40:16.035Z,15.70
2022-12-13T01:45:13.454Z,15.70
2022-12-13T01:50:13.192Z,16.90
2022-12-13T01:55:13.176Z,16.90
2022-12-13T02:00:13.186Z,16.90
2022-12-13T02:05:13.710Z,16.80
2022-12-13T02:10:13.337Z,16.80
2022-12-13T02:15:13.534Z,16.80
2022-12-13T02:20:13.184Z,16.20
2022-12-13T02:25:13.464Z,16.20
2022-12-13T02:35:13.644Z,12.30
2022-12-13T02:40:13.173Z,12.30
2022-12-13T02:45:18.694Z,12.30
2022-12-13T02:50:13.182Z,10.90
2022-12-13T02:55:13.612Z,10.90
2022-12-13T03:00:13.200Z,10.90
2022-12-13T03:10:13.179Z,15.00
2022-12-13T03:15:13.545Z,15.00
2022-12-13T03:25:13.506Z,15.40
2022-12-13T03:30:13.227Z,15.40
2022-12-13T03:40:13.194Z,11.10
2022-12-13T03:45:13.437Z,11.10
2022-12-13T03:50:26.333Z,13.00
2022-12-13T03:55:14.579Z,13.00
2022-12-13T04:00:13.205Z,13.00
2022-12-13T04:05:13.460Z,12.00
2022-12-13T04:10:26.326Z,12.00
2022-12-13T04:15:13.659Z,12.00
2022-12-13T04:20:13.220Z,11.60
2022-12-13T04:25:13.593Z,11.60
2022-12-13T04:30:13.215Z,11.60
2022-12-13T04:35:13.409Z,15.20
2022-12-13T04:40:13.181Z,15.20
2022-12-13T04:45:13.702Z,15.20
2022-12-13T04:55:13.507Z,10.90
2022-12-13T05:00:13.187Z,10.90
2022-12-13T05:05:13.547Z,12.90
2022-12-13T05:15:14.234Z,12.90
2022-12-13T05:20:13.208Z,11.60
2022-12-13T05:25:13.593Z,11.60
2022-12-13T05:30:13.214Z,11.60
2022-12-13T05:35:13.648Z,11.20
2022-12-13T05:40:13.194Z,11.20
2022-12-13T05:45:13.677Z,11.20
2022-12-13T05:50:13.197Z,12.40
2022-12-13T06:00:29.616Z,12.40
2022-12-13T06:10:13.236Z,13.80
2022-12-13T06:15:22.282Z,13.80
2022-12-13T06:20:23.354Z,15.20
2022-12-13T06:25:30.092Z,15.20
2022-12-13T06:30:13.214Z,15.20
2022-12-13T06:35:28.768Z,11.00
2022-12-13T06:40:13.227Z,11.00
2022-12-13T06:45:13.276Z,11.00
2022-12-13T06:55:13.223Z,14.10
2022-12-13T07:00:13.198Z,14.10
2022-12-13T07:10:22.381Z,13.80
2022-12-13T07:15:13.248Z,13.80
2022-12-13T07:20:13.224Z,18.40
2022-12-13T07:30:13.232Z,18.40
2022-12-13T07:40:13.193Z,20.20
2022-12-13T07:45:13.463Z,20.20
2022-12-13T07:50:24.325Z,17.80
2022-12-13T07:55:13.198Z,17.80
2022-12-13T08:05:26.398Z,18.50
2022-12-13T08:10:13.220Z,18.50
2022-12-13T08:15:14.243Z,18.50
2022-12-13T08:20:13.204Z,22.70
2022-12-13T08:25:13.230Z,22.70
2022-12-13T08:35:13.210Z,22.60
2022-12-13T08:40:13.236Z,22.60
2022-12-13T08:45:13.231Z,22.60
2022-12-13T08:50:13.200Z,18.40
2022-12-13T08:55:13.306Z,18.40
2022-12-13T09:05:13.253Z,22.80
2022-12-13T09:10:25.677Z,22.80
2022-12-13T09:15:22.365Z,22.80
2022-12-13T09:20:29.032Z,28.80
2022-12-13T09:25:14.771Z,28.80
2022-12-13T09:30:13.208Z,28.80
2022-12-13T09:35:13.294Z,28.70
2022-12-13T09:40:16.037Z,28.70
2022-12-13T09:45:22.594Z,28.70
2022-12-13T09:50:14.871Z,20.70
2022-12-13T09:55:13.208Z,20.70
2022-12-13T10:05:22.296Z,25.60
2022-12-13T10:10:13.205Z,25.60
2022-12-13T10:15:13.208Z,25.60
2022-12-13T10:20:13.217Z,24.50
2022-12-13T10:25:13.209Z,24.50
2022-12-13T10:30:13.245Z,24.50
2022-12-13T10:35:13.208Z,20.40
2022-12-13T10:40:13.283Z,20.40
2022-12-13T10:45:13.233Z,20.40
2022-12-13T10:50:13.204Z,11.40
2022-12-13T10:55:23.464Z,11.40
2022-12-13T11:05:13.207Z,9.50
2022-12-13T11:10:14.617Z,9.50
2022-12-13T11:15:13.243Z,9.50
2022-12-13T11:20:13.478Z,15.60
2022-12-13T11:25:13.249Z,15.60
2022-12-13T11:30:13.214Z,15.60
2022-12-13T11:35:13.213Z,2.40
2022-12-13T11:40:13.241Z,2.40
2022-12-13T11:45:13.499Z,2.40
2022-12-13T11:50:17.635Z,6.70
2022-12-13T12:05:13.245Z,12.40
2022-12-13T12:10:13.213Z,12.40
2022-12-13T12:20:13.387Z,11.80
2022-12-13T12:25:14.621Z,11.80
2022-12-13T12:30:13.251Z,11.80
2022-12-13T12:35:13.249Z,2.50
2022-12-13T12:40:13.236Z,2.50
2022-12-13T12:45:17.607Z,2.50
2022-12-13T12:50:13.280Z,9.70
2022-12-13T13:05:13.232Z,19.10
2022-12-13T13:10:16.691Z,19.10
2022-12-13T13:15:13.302Z,19.10
2022-12-13T13:20:13.529Z,7.00
2022-12-13T13:25:13.235Z,7.00
2022-12-13T13:40:13.255Z,3.20
2022-12-13T14:00:13.226Z,16.90
2022-12-13T14:05:13.263Z,16.90
2022-12-13T14:10:13.226Z,16.90
2022-12-13T14:15:13.260Z,6.50
2022-12-13T14:20:13.269Z,6.50
2022-12-13T14:30:27.552Z,3.70
2022-12-13T14:35:24.847Z,3.70
2022-12-13T14:40:13.267Z,3.70
2022-12-13T14:45:13.226Z,19.10
2022-12-13T14:50:13.233Z,19.10
2022-12-13T14:55:13.309Z,19.10
2022-12-13T15:05:13.234Z,16.60
2022-12-13T15:10:13.263Z,16.60
2022-12-13T15:15:13.287Z,19.00
2022-12-13T15:30:13.269Z,9.70
2022-12-13T15:40:13.279Z,9.70
2022-12-13T15:45:13.272Z,15.80
2022-12-13T15:50:13.236Z,15.80
2022-12-13T15:55:14.120Z,15.80
2022-12-13T16:10:13.243Z,6.30
2022-12-13T16:15:13.238Z,11.90
2022-12-13T16:20:13.301Z,11.90
2022-12-13T16:40:13.263Z,8.30
2022-12-13T16:50:13.267Z,11.70
2022-12-13T16:55:13.281Z,11.70
2022-12-13T17:00:13.272Z,4.80
2022-12-13T17:10:13.298Z,4.80
2022-12-13T17:15:13.266Z,4.40
2022-12-13T17:30:13.273Z,7.80
2022-12-13T17:40:13.294Z,7.80
2022-12-13T17:45:13.255Z,8.80
2022-12-13T17:55:18.124Z,8.80
2022-12-13T18:05:17.736Z,8.50
2022-12-13T18:15:13.290Z,11.90
2022-12-13T18:25:13.267Z,11.90
2022-12-13T18:30:13.323Z,6.40
2022-12-13T18:35:13.260Z,6.40
2022-12-13T18:50:13.260Z,13.70
2022-12-13T19:05:13.262Z,18.10
2022-12-13T19:10:13.259Z,18.10
2022-12-13T19:15:13.282Z,16.70
2022-12-13T19:20:13.450Z,16.70
2022-12-13T19:40:13.297Z,8.30
2022-12-13T19:50:13.299Z,10.80
2022-12-13T19:55:13.293Z,10.80
2022-12-13T20:00:13.282Z,20.80
2022-12-13T20:05:13.301Z,20.80
2022-12-13T20:15:13.271Z,26.30
2022-12-13T20:25:13.279Z,26.30
2022-12-13T20:30:13.284Z,11.20
2022-12-13T20:35:13.275Z,11.20
2022-12-13T20:40:13.277Z,11.20
2022-12-13T20:50:13.273Z,17.90
2022-12-13T20:55:13.280Z,17.90
2022-12-13T21:10:13.298Z,16.40
2022-12-13T21:15:13.305Z,3.30
2022-12-13T21:20:13.329Z,3.30
2022-12-13T21:25:13.298Z,3.30
2022-12-13T21:45:13.296Z,15.20
2022-12-13T22:00:13.274Z,13.90
2022-12-13T22:05:13.318Z,13.90
2022-12-13T22:20:13.673Z,2.90
2022-12-13T22:25:13.293Z,2.90
2022-12-13T22:30:13.291Z,4.90
2022-12-13T22:35:13.317Z,4.90
2022-12-13T22:40:13.286Z,4.90
2022-12-13T22:45:13.276Z,8.00
2022-12-13T22:55:13.301Z,8.00
2022-12-13T23:00:13.319Z,7.80
2022-12-13T23:05:13.373Z,7.80
2022-12-13T23:10:13.315Z,7.80
2022-12-13T23:15:13.307Z,14.00
2022-12-13T23:20:13.371Z,14.00
2022-12-13T23:25:13.318Z,14.00
2022-12-13T23:35:13.297Z,14.80
2022-12-13T23:40:13.309Z,14.80
2022-12-13T23:50:13.324Z,7.10
2022-12-13T23:55:13.294Z,7.10
